Time;durP1;ratioP1;P1;durP2;ratioP2;P2;SDS_P1;SDS_P2;PMS_P1;PMS_P2;Temp;Humidity;BMP_temperature;BMP_pressure;BME280_temperature;BME280_humidity;BME280_pressure;Samples;Min_cycle;Max_cycle;Signal;HPM_P1;HPM_P2
2022/03/14 00:01:04;;;;;;;;;;;;;;;17.60;39.74;100349.25;4416547;32;20015;-71
2022/03/14 00:03:40;;;;;;;;;;;;;;;17.06;40.86;100346.34;4422504;32;19945;-71
2022/03/14 00:06:11;;;;;;;;;;;;;;;17.35;40.14;100344.22;4419424;32;20006;-71
2022/03/14 00:08:40;;;;;;;;;;;;;;;17.32;40.12;100356.56;4416511;32;19961;-71
2022/03/14 00:11:06;;;;;;;;;;;;;;;17.17;40.66;100349.34;4420678;32;20281;-71
2022/03/14 00:13:32;;;;;;;;;;;;;;;17.24;40.66;100348.91;4408299;32;20006;-71
2022/03/14 00:15:59;;;;;;;;;;;;;;;17.21;40.77;100369.84;4420958;32;19992;-71
2022/03/14 00:18:27;;;;;;;;;;;;;;;17.29;40.59;100371.78;4419037;32;20350;-71
2022/03/14 00:20:54;;;;;;;;;;;;;;;17.36;40.40;100382.75;4420587;32;19995;-71
2022/03/14 00:23:20;;;;;;;;;;;;;;;17.40;40.44;100380.47;4422328;32;20350;-70
2022/03/14 00:25:47;;;;;;;;;;;;;;;17.53;40.03;100392.34;4422087;32;20007;-70
2022/03/14 00:28:13;;;;;;;;;;;;;;;17.51;39.83;100394.91;4422465;32;20041;-70
2022/03/14 00:30:39;;;;;;;;;;;;;;;17.63;39.59;100398.69;4418207;32;20431;-70
2022/03/14 00:33:08;;;;;;;;;;;;;;;17.58;39.71;100408.72;4421870;32;19986;-70
2022/03/14 00:35:36;;;;;;;;;;;;;;;17.80;39.59;100403.34;4406312;32;20283;-70
2022/03/14 00:38:02;;;;;;;;;;;;;;;17.66;39.75;100409.87;4419441;32;20024;-70
2022/03/14 00:40:28;;;;;;;;;;;;;;;17.38;40.41;100407.84;4420538;32;19976;-72
2022/03/14 00:42:54;;;;;;;;;;;;;;;17.37;40.45;100409.13;4420810;32;19992;-72
2022/03/14 00:45:24;;;;;;;;;;;;;;;17.23;40.68;100424.94;4418568;32;20343;-72
2022/03/14 00:47:51;;;;;;;;;;;;;;;17.35;40.39;100425.91;4404917;32;19954;-72
2022/03/14 00:50:17;;;;;;;;;;;;;;;17.31;40.50;100428.94;4421602;32;19961;-72
2022/03/14 00:52:43;;;;;;;;;;;;;;;17.18;40.81;100434.16;4416237;32;19957;-72
2022/03/14 00:55:09;;;;;;;;;;;;;;;17.26;40.55;100440.22;4417964;32;19985;-72
2022/03/14 00:57:35;;;;;;;;;;;;;;;17.32;40.54;100453.28;4419921;32;20317;-72
2022/03/14 01:00:01;;;;;;;;;;;;;;;16.99;40.90;100447.00;4401859;32;20009;-72
2022/03/14 01:02:27;;;;;;;;;;;;;;;17.13;40.84;100457.59;4404533;32;20057;-72
2022/03/14 01:04:53;;;;;;;;;;;;;;;17.02;40.95;100457.41;4401113;32;20371;-72
2022/03/14 01:07:19;;;;;;;;;;;;;;;17.16;40.77;100470.84;4403267;32;20008;-72
2022/03/14 01:09:45;;;;;;;;;;;;;;;17.19;40.73;100471.91;4402305;32;19961;-72
2022/03/14 01:12:11;;;;;;;;;;;;;;;17.12;40.75;100472.31;4407154;32;20490;-72
2022/03/14 01:14:37;;;;;;;;;;;;;;;17.07;40.79;100481.50;4407020;32;20330;-72
2022/03/14 01:17:04;;;;;;;;;;;;;;;16.92;41.19;100490.03;4402847;32;19997;-72
2022/03/14 01:19:29;;;;;;;;;;;;;;;16.77;41.39;100488.44;4404169;32;20386;-72
2022/03/14 01:21:55;;;;;;;;;;;;;;;16.61;41.50;100494.56;4401561;32;20009;-72
2022/03/14 01:24:20;;;;;;;;;;;;;;;16.73;41.38;100502.06;4402820;32;19997;-72
2022/03/14 01:26:46;;;;;;;;;;;;;;;16.69;41.49;100501.47;4403002;32;19995;-72
2022/03/14 01:29:12;;;;;;;;;;;;;;;16.48;42.08;100500.53;4403244;32;19989;-72
2022/03/14 01:31:38;;;;;;;;;;;;;;;16.55;41.82;100508.66;4403693;32;20446;-72
2022/03/14 01:34:03;;;;;;;;;;;;;;;16.43;42.19;100511.72;4402914;32;19950;-72
2022/03/14 01:36:29;;;;;;;;;;;;;;;16.22;42.61;100507.13;4399155;32;20023;-72
2022/03/14 01:38:55;;;;;;;;;;;;;;;16.30;42.54;100505.50;4401847;32;19966;-72
2022/03/14 01:41:22;;;;;;;;;;;;;;;16.23;42.61;100515.16;4404153;32;19989;-72
2022/03/14 01:43:49;;;;;;;;;;;;;;;16.42;42.05;100513.78;4395015;32;20016;-72
2022/03/14 01:46:16;;;;;;;;;;;;;;;16.52;42.03;100523.84;4401686;32;21052;-72
2022/03/14 01:48:42;;;;;;;;;;;;;;;16.36;42.23;100512.88;4406191;32;19985;-72
2022/03/14 01:51:08;;;;;;;;;;;;;;;16.54;41.82;100518.44;4407013;32;20017;-72
2022/03/14 01:53:34;;;;;;;;;;;;;;;16.25;42.38;100518.31;4401026;32;19962;-72
2022/03/14 01:56:00;;;;;;;;;;;;;;;16.27;42.12;100510.09;4403845;32;19954;-72
2022/03/14 01:58:26;;;;;;;;;;;;;;;16.46;42.07;100528.63;4403073;32;20006;-72
2022/03/14 02:00:51;;;;;;;;;;;;;;;16.34;41.91;100521.09;4411131;32;19987;-72
2022/03/14 02:03:17;;;;;;;;;;;;;;;16.25;42.07;100529.66;4419172;32;19986;-72
2022/03/14 02:05:47;;;;;;;;;;;;;;;15.84;43.19;100531.28;4406331;32;19945;-72
2022/03/14 02:08:15;;;;;;;;;;;;;;;16.26;42.21;100550.34;4420352;32;19965;-72
2022/03/14 02:10:40;;;;;;;;;;;;;;;16.15;42.29;100553.72;4416161;32;19972;-72
2022/03/14 02:13:09;;;;;;;;;;;;;;;16.40;42.01;100546.75;4403458;32;20292;-72
2022/03/14 02:15:36;;;;;;;;;;;;;;;16.35;42.09;100556.72;4422694;32;20335;-72
2022/03/14 02:18:02;;;;;;;;;;;;;;;16.29;41.85;100563.56;4423314;32;19984;-72
2022/03/14 02:20:29;;;;;;;;;;;;;;;16.33;41.96;100567.81;4418662;32;20379;-72
2022/03/14 02:22:55;;;;;;;;;;;;;;;16.15;42.06;100567.91;4422015;32;20319;-72
2022/03/14 02:25:20;;;;;;;;;;;;;;;16.16;42.17;100569.47;4420052;32;20082;-72
2022/03/14 02:27:46;;;;;;;;;;;;;;;16.01;42.51;100571.44;4422168;32;19980;-72
2022/03/14 02:30:11;;;;;;;;;;;;;;;16.07;42.31;100574.41;4420714;32;20280;-72
2022/03/14 02:32:41;;;;;;;;;;;;;;;16.16;42.28;100588.53;4415933;32;20026;-72
2022/03/14 02:35:07;;;;;;;;;;;;;;;16.02;42.29;100583.56;4418735;32;19945;-72
2022/03/14 02:37:32;;;;;;;;;;;;;;;16.12;42.08;100600.09;4415813;32;20033;-72
2022/03/14 02:39:58;;;;;;;;;;;;;;;15.88;42.62;100607.75;4422256;32;20004;-72
2022/03/14 02:42:23;;;;;;;;;;;;;;;15.90;42.49;100613.75;4405431;32;20402;-72
2022/03/14 02:44:49;;;;;;;;;;;;;;;16.05;42.11;100614.66;4419309;32;19993;-72
2022/03/14 02:47:14;;;;;;;;;;;;;;;15.98;42.34;100623.47;4418673;32;20050;-72
2022/03/14 02:49:40;;;;;;;;;;;;;;;15.92;42.39;100631.06;4415581;32;20117;-72
2022/03/14 02:52:06;;;;;;;;;;;;;;;16.01;42.24;100638.78;4419675;32;20381;-72
2022/03/14 02:54:31;;;;;;;;;;;;;;;15.68;42.57;100633.03;4419501;32;20003;-72
2022/03/14 02:56:57;;;;;;;;;;;;;;;15.83;42.49;100645.28;4421941;32;20005;-72
2022/03/14 02:59:23;;;;;;;;;;;;;;;15.77;42.64;100647.19;4419851;32;19961;-72
2022/03/14 03:01:49;;;;;;;;;;;;;;;15.82;42.50;100652.22;4418370;32;19995;-71
2022/03/14 03:04:14;;;;;;;;;;;;;;;15.90;42.35;100650.63;4423267;32;19996;-71
2022/03/14 03:06:40;;;;;;;;;;;;;;;15.65;42.89;100660.28;4420640;32;19953;-71
2022/03/14 03:09:05;;;;;;;;;;;;;;;15.90;42.23;100665.59;4419664;32;19967;-72
2022/03/14 03:11:32;;;;;;;;;;;;;;;15.90;42.19;100667.66;4422274;32;20354;-72
2022/03/14 03:14:01;;;;;;;;;;;;;;;15.59;42.90;100665.03;4421691;32;19981;-72
2022/03/14 03:16:27;;;;;;;;;;;;;;;15.70;42.47;100667.37;4421036;32;20012;-72
2022/03/14 03:18:53;;;;;;;;;;;;;;;15.76;42.44;100677.63;4408362;32;20430;-72
2022/03/14 03:21:19;;;;;;;;;;;;;;;15.55;42.67;100675.75;4419675;32;20020;-72
2022/03/14 03:23:44;;;;;;;;;;;;;;;15.54;42.83;100682.69;4421997;32;20016;-72
2022/03/14 03:26:10;;;;;;;;;;;;;;;15.38;43.33;100687.91;4424071;32;20504;-72
2022/03/14 03:28:36;;;;;;;;;;;;;;;15.35;43.20;100689.62;4421357;32;20391;-72
2022/03/14 03:31:10;;;;;;;;;;;;;;;15.20;43.46;100697.16;4417992;32;20036;-72
2022/03/14 03:33:36;;;;;;;;;;;;;;;15.26;43.44;100703.00;4409714;32;20290;-72
2022/03/14 03:36:02;;;;;;;;;;;;;;;15.21;43.44;100707.25;4427571;32;19965;-72
2022/03/14 03:38:28;;;;;;;;;;;;;;;15.26;43.22;100720.00;4420591;32;20039;-72
2022/03/14 03:40:54;;;;;;;;;;;;;;;15.19;43.59;100723.91;4418054;32;20001;-72
2022/03/14 03:43:19;;;;;;;;;;;;;;;14.95;43.61;100739.16;4424156;32;19988;-72
2022/03/14 03:45:45;;;;;;;;;;;;;;;15.02;43.74;100736.81;4420017;32;19953;-72
2022/03/14 03:48:11;;;;;;;;;;;;;;;15.08;43.47;100749.13;4416768;32;20005;-72
2022/03/14 03:50:38;;;;;;;;;;;;;;;15.15;43.29;100745.97;4420219;32;21153;-72
2022/03/14 03:53:03;;;;;;;;;;;;;;;15.14;43.27;100761.41;4420071;32;19953;-72
2022/03/14 03:55:29;;;;;;;;;;;;;;;15.11;43.29;100767.22;4418556;32;20338;-72
2022/03/14 03:57:55;;;;;;;;;;;;;;;15.22;42.88;100759.84;4422206;32;19957;-72
2022/03/14 04:00:22;;;;;;;;;;;;;;;15.10;43.34;100762.81;4419212;32;19973;-71
2022/03/14 04:02:47;;;;;;;;;;;;;;;15.05;43.29;100763.41;4411376;32;19953;-71
2022/03/14 04:05:20;;;;;;;;;;;;;;;15.14;43.19;100754.94;4416927;32;20442;-71
2022/03/14 04:07:46;;;;;;;;;;;;;;;15.14;43.18;100780.47;4422088;32;20624;-71
2022/03/14 04:10:15;;;;;;;;;;;;;;;15.14;43.32;100772.75;4423113;32;20008;-71
2022/03/14 04:12:41;;;;;;;;;;;;;;;15.21;43.30;100780.94;4420377;32;19989;-71
2022/03/14 04:15:12;;;;;;;;;;;;;;;15.21;43.22;100788.66;4423143;32;20398;-71
2022/03/14 04:17:42;;;;;;;;;;;;;;;15.35;42.88;100786.03;4407774;32;19992;-72
2022/03/14 04:20:08;;;;;;;;;;;;;;;15.29;43.18;100793.56;4419736;32;19997;-72
2022/03/14 04:22:36;;;;;;;;;;;;;;;15.36;43.01;100803.81;4417865;32;20017;-72
2022/03/14 04:25:02;;;;;;;;;;;;;;;15.32;42.96;100808.84;4422020;32;20347;-72
2022/03/14 04:27:30;;;;;;;;;;;;;;;15.39;42.82;100802.91;4423862;32;19988;-71
2022/03/14 04:29:56;;;;;;;;;;;;;;;15.36;42.93;100813.13;4416153;32;19987;-71
2022/03/14 04:32:23;;;;;;;;;;;;;;;15.36;43.12;100813.13;4417599;32;20336;-72
2022/03/14 04:34:48;;;;;;;;;;;;;;;15.18;43.20;100807.41;4418900;32;20383;-72
2022/03/14 04:37:14;;;;;;;;;;;;;;;15.21;43.14;100814.16;4420835;32;19957;-72
2022/03/14 04:39:40;;;;;;;;;;;;;;;15.25;42.99;100818.44;4420940;32;19985;-72
2022/03/14 04:42:07;;;;;;;;;;;;;;;15.29;43.11;100821.13;4419975;32;20316;-72
2022/03/14 04:44:34;;;;;;;;;;;;;;;15.30;43.04;100829.16;4419874;32;20005;-72
2022/03/14 04:46:59;;;;;;;;;;;;;;;15.19;43.29;100828.81;4424664;32;20409;-72
2022/03/14 04:49:27;;;;;;;;;;;;;;;15.16;43.32;100834.66;4418895;32;20017;-72
2022/03/14 04:51:54;;;;;;;;;;;;;;;15.15;43.38;100833.03;4419803;32;20000;-72
2022/03/14 04:54:20;;;;;;;;;;;;;;;14.99;43.80;100836.94;4419847;32;19981;-72
2022/03/14 04:56:48;;;;;;;;;;;;;;;15.11;43.49;100843.75;4421024;32;20347;-72
2022/03/14 04:59:14;;;;;;;;;;;;;;;15.12;43.54;100851.00;4418446;32;19956;-72
2022/03/14 05:01:40;;;;;;;;;;;;;;;14.77;44.29;100846.75;4405586;32;19981;-72
2022/03/14 05:04:06;;;;;;;;;;;;;;;14.78;44.45;100857.63;4421838;32;19969;-72
2022/03/14 05:06:32;;;;;;;;;;;;;;;14.51;45.33;100863.13;4409380;32;19992;-72
2022/03/14 05:08:58;;;;;;;;;;;;;;;14.37;45.76;100877.03;4424211;32;19949;-72
2022/03/14 05:11:24;;;;;;;;;;;;;;;14.41;45.39;100884.16;4424654;32;19985;-72
2022/03/14 05:13:50;;;;;;;;;;;;;;;14.29;45.65;100879.34;4420416;32;20020;-72
2022/03/14 05:16:15;;;;;;;;;;;;;;;14.39;45.65;100885.88;4418835;32;20094;-72
2022/03/14 05:18:41;;;;;;;;;;;;;;;14.51;44.95;100882.19;4418507;32;19984;-72
2022/03/14 05:21:06;;;;;;;;;;;;;;;14.60;44.84;100887.91;4418308;32;19960;-72
2022/03/14 05:23:32;;;;;;;;;;;;;;;14.57;44.75;100883.94;4420667;32;20000;-72
2022/03/14 05:25:59;;;;;;;;;;;;;;;14.58;45.02;100884.75;4419334;32;20005;-72
2022/03/14 05:28:25;;;;;;;;;;;;;;;14.61;44.76;100880.97;4422188;32;19945;-72
2022/03/14 05:30:51;;;;;;;;;;;;;;;14.61;44.83;100887.44;4419352;32;19964;-72
2022/03/14 05:33:17;;;;;;;;;;;;;;;14.51;45.21;100882.19;4420581;32;20329;-72
2022/03/14 05:35:43;;;;;;;;;;;;;;;14.53;44.98;100888.16;4424858;32;19953;-72
2022/03/14 05:38:09;;;;;;;;;;;;;;;14.58;45.04;100904.56;4419765;32;19999;-72
2022/03/14 05:40:37;;;;;;;;;;;;;;;14.64;44.72;100899.88;4421540;32;19993;-72
2022/03/14 05:43:07;;;;;;;;;;;;;;;14.74;44.54;100902.31;4420486;32;19992;-72
2022/03/14 05:45:34;;;;;;;;;;;;;;;14.83;44.38;100910.88;4419887;32;19976;-72
2022/03/14 05:48:00;;;;;;;;;;;;;;;14.92;44.07;100916.59;4417673;32;20029;-72
2022/03/14 05:50:25;;;;;;;;;;;;;;;14.96;43.86;100916.44;4417384;32;19949;-72
2022/03/14 05:52:51;;;;;;;;;;;;;;;14.71;44.54;100920.22;4421861;32;19985;-72
2022/03/14 05:55:17;;;;;;;;;;;;;;;14.79;44.32;100930.03;4421536;32;19971;-72
2022/03/14 05:57:42;;;;;;;;;;;;;;;14.49;45.12;100924.31;4422904;32;20316;-72
2022/03/14 06:00:08;;;;;;;;;;;;;;;14.74;44.38;100938.34;4415949;32;20043;-72
2022/03/14 06:02:35;;;;;;;;;;;;;;;14.67;44.61;100930.12;4418755;32;20369;-72
2022/03/14 06:05:00;;;;;;;;;;;;;;;14.98;43.83;100947.94;4423331;32;20430;-72
2022/03/14 06:07:26;;;;;;;;;;;;;;;14.63;44.34;100944.41;4418466;32;19970;-72
2022/03/14 06:09:51;;;;;;;;;;;;;;;14.61;44.67;100946.13;4417320;32;19957;-72
2022/03/14 06:12:25;;;;;;;;;;;;;;;14.59;44.76;100955.09;4418500;32;20332;-72
2022/03/14 06:14:51;;;;;;;;;;;;;;;14.76;44.16;100962.13;4420289;32;20258;-72
2022/03/14 06:17:17;;;;;;;;;;;;;;;14.90;43.77;100967.25;4418172;32;19995;-72
2022/03/14 06:19:42;;;;;;;;;;;;;;;14.45;44.82;100964.09;4416143;32;20373;-72
2022/03/14 06:22:08;;;;;;;;;;;;;;;14.84;44.22;100973.97;4418223;32;20025;-72
2022/03/14 06:24:34;;;;;;;;;;;;;;;14.75;44.23;100976.75;4416765;32;19989;-72
2022/03/14 06:26:59;;;;;;;;;;;;;;;14.86;43.52;100969.44;4418925;32;20391;-72
2022/03/14 06:29:26;;;;;;;;;;;;;;;14.67;43.93;100973.38;4405653;32;20376;-72
2022/03/14 06:31:51;;;;;;;;;;;;;;;14.47;44.72;100984.25;4420198;32;19962;-72
2022/03/14 06:34:16;;;;;;;;;;;;;;;14.64;44.45;100996.19;4419077;32;20439;-72
2022/03/14 06:36:44;;;;;;;;;;;;;;;14.96;43.52;100995.78;4418603;32;19985;-72
2022/03/14 06:39:10;;;;;;;;;;;;;;;15.06;43.21;101003.06;4420083;32;19988;-72
2022/03/14 06:41:38;;;;;;;;;;;;;;;14.95;43.16;101005.53;4417340;32;19997;-72
2022/03/14 06:44:04;;;;;;;;;;;;;;;15.11;43.19;101011.78;4419791;32;19958;-72
2022/03/14 06:46:29;;;;;;;;;;;;;;;14.97;43.20;101018.00;4422244;32;20484;-72
2022/03/14 06:48:55;;;;;;;;;;;;;;;15.10;43.21;101015.09;4423102;32;19976;-72
2022/03/14 06:51:21;;;;;;;;;;;;;;;15.15;43.04;101022.97;4409947;32;19988;-72
2022/03/14 06:53:48;;;;;;;;;;;;;;;15.22;42.83;101022.72;4423161;32;20640;-72
2022/03/14 06:56:16;;;;;;;;;;;;;;;15.22;42.75;101031.22;4419898;32;20417;-72
2022/03/14 06:58:42;;;;;;;;;;;;;;;15.16;43.07;101025.34;4421042;32;20053;-72
2022/03/14 07:01:08;;;;;;;;;;;;;;;15.32;42.70;101030.03;4422428;32;19993;-72
2022/03/14 07:03:34;;;;;;;;;;;;;;;15.49;42.09;101032.19;4425364;32;19983;-72
2022/03/14 07:06:00;;;;;;;;;;;;;;;15.58;41.90;101032.25;4425205;32;19989;-72
2022/03/14 07:08:26;;;;;;;;;;;;;;;15.65;41.87;101036.84;4423286;32;19994;-72
2022/03/14 07:10:53;;;;;;;;;;;;;;;15.69;41.23;101032.63;4418561;32;19972;-72
2022/03/14 07:13:20;;;;;;;;;;;;;;;15.64;41.54;101030.37;4420238;32;19985;-72
2022/03/14 07:15:47;;;;;;;;;;;;;;;15.66;41.65;101047.72;4422572;32;20007;-72
2022/03/14 07:18:13;;;;;;;;;;;;;;;15.80;41.41;101037.84;4422752;32;19958;-72
2022/03/14 07:20:38;;;;;;;;;;;;;;;15.69;41.14;101038.28;4420654;32;19968;-72
2022/03/14 07:23:06;;;;;;;;;;;;;;;15.74;41.47;101039.72;4422002;32;19968;-72
2022/03/14 07:25:34;;;;;;;;;;;;;;;15.54;41.67;101042.16;4418727;32;19997;-72
2022/03/14 07:28:01;;;;;;;;;;;;;;;15.74;41.43;101045.41;4420815;32;20040;-72
2022/03/14 07:30:26;;;;;;;;;;;;;;;15.88;41.04;101047.66;4419714;32;20399;-72
2022/03/14 07:32:53;;;;;;;;;;;;;;;16.10;40.43;101051.19;4424114;32;20674;-73
2022/03/14 07:35:19;;;;;;;;;;;;;;;16.13;40.88;101066.50;4418208;32;20249;-72
2022/03/14 07:37:45;;;;;;;;;;;;;;;16.15;40.91;101064.78;4416674;32;19953;-72
2022/03/14 07:40:12;;;;;;;;;;;;;;;16.06;40.74;101069.62;4416076;32;19966;-72
2022/03/14 07:42:41;;;;;;;;;;;;;;;16.25;40.69;101066.38;4414830;32;19953;-72
2022/03/14 07:45:07;;;;;;;;;;;;;;;16.37;40.72;101076.81;4414081;32;19985;-72
2022/03/14 07:47:33;;;;;;;;;;;;;;;16.20;40.50;101077.56;4420173;32;19961;-72
2022/03/14 07:49:58;;;;;;;;;;;;;;;16.26;40.21;101075.69;4416610;32;19997;-72
2022/03/14 07:52:24;;;;;;;;;;;;;;;16.30;40.47;101082.81;4406493;32;19987;-72
2022/03/14 07:54:50;;;;;;;;;;;;;;;16.20;40.75;101083.25;4420457;32;20043;-72
2022/03/14 07:57:15;;;;;;;;;;;;;;;16.32;40.63;101088.78;4417118;32;20048;-72
2022/03/14 07:59:41;;;;;;;;;;;;;;;16.23;40.79;101088.00;4415398;32;19980;-72
2022/03/14 08:02:07;;;;;;;;;;;;;;;16.07;40.81;101093.94;4419606;32;19960;-72
2022/03/14 08:04:37;;;;;;;;;;;;;;;15.91;41.36;101101.44;4414256;32;19992;-72
2022/03/14 08:07:03;;;;;;;;;;;;;;;16.10;nan;101090.94;4413888;32;20599;-72
2022/03/14 08:09:29;;;;;;;;;;;;;;;16.16;41.08;101103.25;4414352;32;20004;-72
2022/03/14 08:11:55;;;;;;;;;;;;;;;16.46;40.57;101108.13;4413966;32;20337;-73
2022/03/14 08:14:21;;;;;;;;;;;;;;;16.73;40.06;101110.22;4414861;32;20430;-74
2022/03/14 08:16:47;;;;;;;;;;;;;;;16.52;40.38;101099.75;4410195;32;19971;-73
2022/03/14 08:19:12;;;;;;;;;;;;;;;16.57;40.43;101102.75;4412213;32;19961;-73
2022/03/14 08:21:38;;;;;;;;;;;;;;;16.82;39.80;101099.66;4411186;32;19961;-73
2022/03/14 08:24:03;;;;;;;;;;;;;;;17.06;39.63;101106.25;4407183;32;20008;-74
2022/03/14 08:26:29;;;;;;;;;;;;;;;17.05;39.53;101115.28;4405204;32;19985;-73
2022/03/14 08:28:55;;;;;;;;;;;;;;;17.34;39.07;101104.97;4407878;32;20001;-73
2022/03/14 08:31:22;;;;;;;;;;;;;;;17.67;38.46;101114.44;4409446;32;20379;-73
2022/03/14 08:33:56;;;;;;;;;;;;;;;17.89;38.15;101119.91;4410598;32;19968;-73
2022/03/14 08:36:25;;;;;;;;;;;;;;;18.15;37.37;101125.97;4410619;32;19969;-74
2022/03/14 08:38:54;;;;;;;;;;;;;;;18.13;37.16;101128.53;4409598;32;19996;-74
2022/03/14 08:41:21;;;;;;;;;;;;;;;18.00;37.02;101145.00;4408560;32;19970;-74
2022/03/14 08:43:47;;;;;;;;;;;;;;;18.08;37.07;101144.22;4405893;32;19977;-73
2022/03/14 08:46:23;;;;;;;;;;;;;;;18.39;36.12;101143.94;4411215;32;19952;-72
2022/03/14 08:48:49;;;;;;;;;;;;;;;17.82;37.18;101146.66;4409816;32;20472;-74
2022/03/14 08:51:39;;;;;;;;;;;;;;;18.43;36.30;101148.19;4407799;32;20400;-75
2022/03/14 08:54:13;;;;;;;;;;;;;;;18.48;36.33;101158.94;4411684;32;20305;-75
2022/03/14 08:57:01;;;;;;;;;;;;;;;18.38;36.33;101168.78;4414110;32;19958;-74
2022/03/14 08:59:28;;;;;;;;;;;;;;;18.85;35.33;101166.00;4413232;32;20008;-74
2022/03/14 09:01:58;;;;;;;;;;;;;;;18.49;35.40;101186.16;4413677;32;20005;-74
2022/03/14 09:04:47;;;;;;;;;;;;;;;18.92;35.22;101182.72;4412044;32;20441;-75
2022/03/14 09:07:27;;;;;;;;;;;;;;;19.29;34.36;101189.78;4411665;32;20023;-72
2022/03/14 09:09:54;;;;;;;;;;;;;;;19.37;34.51;101195.91;4396577;32;20039;-73
2022/03/14 09:12:21;;;;;;;;;;;;;;;19.37;33.97;101230.94;4412113;32;19989;-73
2022/03/14 09:15:07;;;;;;;;;;;;;;;18.83;34.77;101222.72;4383049;32;20579;-73
2022/03/14 09:17:46;;;;;;;;;;;;;;;19.19;34.19;101222.50;4384099;32;19965;-73
2022/03/14 09:20:39;;;;;;;;;;;;;;;19.05;33.88;101220.34;4377631;32;19955;-73
2022/03/14 09:23:07;;;;;;;;;;;;;;;19.18;34.24;101218.03;4384472;32;20073;-73
2022/03/14 09:25:33;;;;;;;;;;;;;;;19.48;33.93;101230.34;4370859;32;19961;-73
2022/03/14 09:27:59;;;;;;;;;;;;;;;20.00;33.03;101235.28;4385467;32;19954;-73
2022/03/14 09:30:50;;;;;;;;;;;;;;;20.31;32.01;101232.72;4381322;32;20474;-73
2022/03/14 09:33:35;;;;;;;;;;;;;;;20.49;31.77;101235.38;4381038;32;20001;-74
2022/03/14 09:36:17;;;;;;;;;;;;;;;20.54;31.88;101246.13;4382761;32;19981;-74
2022/03/14 09:38:43;;;;;;;;;;;;;;;21.17;30.83;101255.94;4384110;32;21496;-74
2022/03/14 09:41:28;;;;;;;;;;;;;;;20.94;30.75;101249.12;4383254;32;19996;-74
2022/03/14 09:44:15;;;;;;;;;;;;;;;21.04;30.05;101250.56;4383491;32;20024;-74
2022/03/14 09:46:45;;;;;;;;;;;;;;;21.33;30.00;101255.38;4384517;32;19989;-74
2022/03/14 09:49:19;;;;;;;;;;;;;;;21.47;29.80;101258.16;4382263;32;20453;-73
2022/03/14 09:51:46;;;;;;;;;;;;;;;22.28;28.87;101263.78;4386772;32;20037;-76
2022/03/14 09:54:21;;;;;;;;;;;;;;;22.72;27.84;101272.78;4409835;32;19977;-77
2022/03/14 09:56:48;;;;;;;;;;;;;;;22.65;27.61;101270.38;4411601;32;20402;-74
2022/03/14 09:59:32;;;;;;;;;;;;;;;23.24;26.57;101274.22;4413381;32;20000;-74
2022/03/14 10:02:00;;;;;;;;;;;;;;;23.21;26.47;101283.81;4411934;32;20326;-74
2022/03/14 10:04:28;;;;;;;;;;;;;;;23.73;25.82;101290.09;4409903;32;20341;-74
2022/03/14 10:06:54;;;;;;;;;;;;;;;23.75;25.00;101299.00;4401697;32;20335;-74
2022/03/14 10:09:38;;;;;;;;;;;;;;;23.88;24.82;101290.69;4412720;32;20308;-75
2022/03/14 10:12:14;;;;;;;;;;;;;;;24.08;24.54;101299.91;4413306;32;20293;-74
2022/03/14 10:14:39;;;;;;;;;;;;;;;24.42;24.25;101295.03;4410764;32;19967;-74
2022/03/14 10:17:27;;;;;;;;;;;;;;;24.63;23.17;101305.75;4414380;32;19985;-75
2022/03/14 10:20:09;;;;;;;;;;;;;;;24.84;22.68;101314.94;4412783;32;19957;-73
2022/03/14 10:22:37;;;;;;;;;;;;;;;24.76;21.60;101320.44;4415943;32;20484;-74
2022/03/14 10:25:22;;;;;;;;;;;;;;;24.40;22.18;101315.69;4413391;32;20659;-73
2022/03/14 10:27:55;;;;;;;;;;;;;;;24.43;21.79;101317.53;4407343;32;20364;-74
2022/03/14 10:35:44;;;;;;;;;;;;;;;25.34;21.14;101325.09;3947957;32;15723491;-74
2022/03/14 10:38:35;;;;;;;;;;;;;;;25.34;21.14;101325.09;4432682;32;19984;-73
2022/03/14 10:41:17;;;;;;;;;;;;;;;25.01;20.71;101324.34;4432284;32;20030;-74
2022/03/14 10:43:44;;;;;;;;;;;;;;;24.98;20.75;101328.28;4434119;32;21109;-74
2022/03/14 10:46:10;;;;;;;;;;;;;;;24.97;21.08;101330.38;4433415;32;19969;-74
2022/03/14 10:51:14;;;;;;;;;;;;;;;25.88;19.94;101339.06;3947640;32;15724659;-74
2022/03/14 10:53:42;;;;;;;;;;;;;;;25.88;19.94;101339.06;4420727;32;19984;-74
2022/03/14 10:56:16;;;;;;;;;;;;;;;25.55;20.15;101337.09;4420798;32;20009;-74
2022/03/14 10:59:17;;;;;;;;;;;;;;;25.57;20.16;101330.81;4421152;32;20533;-74
2022/03/14 11:01:58;;;;;;;;;;;;;;;25.84;20.33;101338.56;4423143;32;19959;-74
2022/03/14 11:04:26;;;;;;;;;;;;;;;25.43;20.71;101344.19;4422533;32;20032;-74
2022/03/14 11:06:58;;;;;;;;;;;;;;;25.80;19.93;101335.19;4421766;32;20025;-74
2022/03/14 11:09:45;;;;;;;;;;;;;;;25.37;20.72;101334.78;4417939;32;20031;-73
2022/03/14 11:12:13;;;;;;;;;;;;;;;25.65;20.32;101343.38;4421700;32;19997;-74
2022/03/14 11:14:51;;;;;;;;;;;;;;;26.21;19.91;101339.72;4420575;32;20009;-74
2022/03/14 11:17:18;;;;;;;;;;;;;;;25.97;19.87;101336.69;4418489;32;20001;-74
2022/03/14 11:20:05;;;;;;;;;;;;;;;25.86;19.90;101353.25;4419062;32;19994;-74
2022/03/14 11:22:31;;;;;;;;;;;;;;;25.38;20.24;101345.03;4409730;32;19954;-74
2022/03/14 11:25:17;;;;;;;;;;;;;;;25.84;20.08;101344.34;4420386;32;20572;-74
2022/03/14 11:27:44;;;;;;;;;;;;;;;24.92;21.06;101341.91;4420591;32;20541;-74
2022/03/14 11:30:14;;;;;;;;;;;;;;;24.98;21.05;101354.97;4416960;32;19969;-74
2022/03/14 11:32:42;;;;;;;;;;;;;;;25.72;20.53;101345.69;4422483;32;20001;-72
2022/03/14 11:35:29;;;;;;;;;;;;;;;25.50;20.47;101360.19;4418201;32;20012;-73
2022/03/14 11:37:56;;;;;;;;;;;;;;;25.47;20.77;101356.25;4423818;32;20009;-74
2022/03/14 11:40:25;;;;;;;;;;;;;;;25.45;20.56;101346.56;4419073;32;20001;-74
2022/03/14 11:42:51;;;;;;;;;;;;;;;25.16;19.08;101345.03;4419207;32;19997;-73
2022/03/14 11:45:37;;;;;;;;;;;;;;;25.64;18.78;101347.56;4419803;32;19997;-74
2022/03/14 11:48:05;;;;;;;;;;;;;;;25.42;17.13;101354.16;4421366;32;20009;-74
2022/03/14 11:50:56;;;;;;;;;;;;;;;24.98;17.27;101359.97;4419826;32;20753;-73
2022/03/14 11:53:29;;;;;;;;;;;;;;;24.93;17.64;101373.06;4419397;32;20038;-74
2022/03/14 11:58:38;;;;;;;;;;;;;;;24.88;17.89;101368.06;3939964;32;15724824;-72
2022/03/14 12:01:23;;;;;;;;;;;;;;;24.88;17.89;101368.06;4416313;32;19980;-72
2022/03/14 12:03:57;;;;;;;;;;;;;;;24.86;18.02;101364.94;4422424;32;20023;-72
2022/03/14 12:14:50;;;;;;;;;;;;;;;25.95;18.71;101373.91;3946716;32;15729612;-73
2022/03/14 12:20:00;;;;;;;;;;;;;;;26.04;19.11;101378.63;3945067;32;15726532;-72
2022/03/14 12:25:04;;;;;;;;;;;;;;;25.70;20.14;101389.47;3948275;32;15723573;-73
2022/03/14 12:27:42;;;;;;;;;;;;;;;25.70;20.14;101389.47;4422114;32;19957;-73
2022/03/14 12:45:45;;;;;;;;;;;;;;;25.46;21.99;101376.97;3948666;32;15723572;-74
2022/03/14 12:50:56;;;;;;;;;;;;;;;25.45;22.13;101386.91;3946976;32;15726587;-75
2022/03/14 12:53:43;;;;;;;;;;;;;;;25.70;21.22;101391.56;4424188;32;20003;-74
2022/03/14 12:56:12;;;;;;;;;;;;;;;24.92;21.74;101388.78;4423180;32;20438;-75
2022/03/14 12:58:51;;;;;;;;;;;;;;;25.14;21.79;101374.34;4425130;32;19950;-74
2022/03/14 13:01:17;;;;;;;;;;;;;;;25.65;21.76;101378.75;4422798;32;20013;-74
2022/03/14 13:03:43;;;;;;;;;;;;;;;25.65;22.14;101381.63;4420095;32;19989;-74
2022/03/14 13:06:09;;;;;;;;;;;;;;;25.84;21.91;101376.84;4426962;32;20004;-74
2022/03/14 13:08:51;;;;;;;;;;;;;;;26.25;21.64;101377.75;4423407;32;19965;-75
2022/03/14 13:11:38;;;;;;;;;;;;;;;24.61;22.75;101370.91;4420164;32;20017;-74
2022/03/14 13:14:09;;;;;;;;;;;;;;;24.36;22.84;101366.16;4423194;32;20017;-74
2022/03/14 13:16:38;;;;;;;;;;;;;;;24.16;23.11;101363.47;4423627;32;19953;-74
2022/03/14 13:19:13;;;;;;;;;;;;;;;23.43;23.91;101373.03;4423115;32;19980;-76
2022/03/14 13:21:40;;;;;;;;;;;;;;;23.47;23.34;101367.81;4419759;32;20024;-75
2022/03/14 13:24:06;;;;;;;;;;;;;;;23.83;22.75;101366.19;4410096;32;20666;-75
2022/03/14 13:26:33;;;;;;;;;;;;;;;24.67;21.93;101371.72;4407060;32;20976;-76